sensor_id;sensor_type;location;lat;lon;timestamp;P1;durP1;ratioP1;P2;durP2;ratioP2
8946;SDS011;4508;48.790;9.028;2023-01-15T00:01:39;1.10;;;0.87;;
8946;SDS011;4508;48.790;9.028;2023-01-15T00:04:07;1.15;;;1.02;;
8946;SDS011;4508;48.790;9.028;2023-01-15T00:06:35;1.00;;;0.95;;
8946;SDS011;4508;48.790;9.028;2023-01-15T00:09:02;0.90;;;0.90;;
8946;SDS011;4508;48.790;9.028;2023-01-15T00:11:29;1.00;;;0.90;;
8946;SDS011;4508;48.790;9.028;2023-01-15T00:13:56;1.10;;;1.00;;
8946;SDS011;4508;48.790;9.028;2023-01-15T00:16:24;1.10;;;1.00;;
8946;SDS011;4508;48.790;9.028;2023-01-15T00:18:55;1.10;;;1.00;;
8946;SDS011;4508;48.790;9.028;2023-01-15T00:21:22;0.80;;;0.80;;
8946;SDS011;4508;48.790;9.028;2023-01-15T00:23:50;0.97;;;0.70;;
8946;SDS011;4508;48.790;9.028;2023-01-15T00:26:35;1.10;;;1.00;;
8946;SDS011;4508;48.790;9.028;2023-01-15T00:29:20;1.00;;;0.90;;
8946;SDS011;4508;48.790;9.028;2023-01-15T00:31:51;0.77;;;0.75;;
8946;SDS011;4508;48.790;9.028;2023-01-15T00:34:22;1.00;;;0.90;;
8946;SDS011;4508;48.790;9.028;2023-01-15T00:36:49;1.25;;;0.90;;
8946;SDS011;4508;48.790;9.028;2023-01-15T00:39:16;0.90;;;0.80;;
8946;SDS011;4508;48.790;9.028;2023-01-15T00:41:43;0.77;;;0.77;;
8946;SDS011;4508;48.790;9.028;2023-01-15T00:44:10;0.60;;;0.60;;
8946;SDS011;4508;48.790;9.028;2023-01-15T00:46:36;1.30;;;0.88;;
8946;SDS011;4508;48.790;9.028;2023-01-15T00:49:03;0.88;;;0.88;;
8946;SDS011;4508;48.790;9.028;2023-01-15T00:51:31;0.70;;;0.70;;
8946;SDS011;4508;48.790;9.028;2023-01-15T00:53:58;0.80;;;0.80;;
8946;SDS011;4508;48.790;9.028;2023-01-15T00:56:25;1.50;;;0.70;;
8946;SDS011;4508;48.790;9.028;2023-01-15T00:58:52;1.23;;;0.90;;
8946;SDS011;4508;48.790;9.028;2023-01-15T01:01:19;0.80;;;0.80;;
8946;SDS011;4508;48.790;9.028;2023-01-15T01:03:46;0.85;;;0.70;;
8946;SDS011;4508;48.790;9.028;2023-01-15T01:06:16;0.90;;;0.70;;
8946;SDS011;4508;48.790;9.028;2023-01-15T01:08:45;0.90;;;0.75;;
8946;SDS011;4508;48.790;9.028;2023-01-15T01:11:13;0.70;;;0.70;;
8946;SDS011;4508;48.790;9.028;2023-01-15T01:13:41;0.70;;;0.70;;
8946;SDS011;4508;48.790;9.028;2023-01-15T01:16:22;0.80;;;0.60;;
8946;SDS011;4508;48.790;9.028;2023-01-15T01:18:50;0.73;;;0.73;;
8946;SDS011;4508;48.790;9.028;2023-01-15T01:21:17;1.00;;;0.70;;
8946;SDS011;4508;48.790;9.028;2023-01-15T01:23:46;0.80;;;0.80;;
8946;SDS011;4508;48.790;9.028;2023-01-15T01:26:13;0.60;;;0.60;;
8946;SDS011;4508;48.790;9.028;2023-01-15T01:28:40;0.60;;;0.60;;
8946;SDS011;4508;48.790;9.028;2023-01-15T01:31:07;1.00;;;0.90;;
8946;SDS011;4508;48.790;9.028;2023-01-15T01:33:34;0.82;;;0.70;;
8946;SDS011;4508;48.790;9.028;2023-01-15T01:36:01;0.60;;;0.60;;
8946;SDS011;4508;48.790;9.028;2023-01-15T01:38:28;0.50;;;0.50;;
8946;SDS011;4508;48.790;9.028;2023-01-15T01:40:56;0.60;;;0.60;;
8946;SDS011;4508;48.790;9.028;2023-01-15T01:43:23;0.70;;;0.70;;
8946;SDS011;4508;48.790;9.028;2023-01-15T01:45:51;0.60;;;0.60;;
8946;SDS011;4508;48.790;9.028;2023-01-15T01:48:19;0.50;;;0.50;;
8946;SDS011;4508;48.790;9.028;2023-01-15T01:50:50;0.77;;;0.70;;
8946;SDS011;4508;48.790;9.028;2023-01-15T01:53:20;0.52;;;0.52;;
8946;SDS011;4508;48.790;9.028;2023-01-15T01:55:51;0.50;;;0.50;;
8946;SDS011;4508;48.790;9.028;2023-01-15T01:58:22;0.50;;;0.50;;
8946;SDS011;4508;48.790;9.028;2023-01-15T02:00:52;0.70;;;0.70;;
8946;SDS011;4508;48.790;9.028;2023-01-15T02:03:19;0.50;;;0.50;;
8946;SDS011;4508;48.790;9.028;2023-01-15T02:05:51;0.40;;;0.40;;
8946;SDS011;4508;48.790;9.028;2023-01-15T02:08:20;0.50;;;0.50;;
8946;SDS011;4508;48.790;9.028;2023-01-15T02:10:48;0.70;;;0.70;;
8946;SDS011;4508;48.790;9.028;2023-01-15T02:13:18;0.52;;;0.52;;
8946;SDS011;4508;48.790;9.028;2023-01-15T02:15:54;0.43;;;0.43;;
8946;SDS011;4508;48.790;9.028;2023-01-15T02:18:28;0.50;;;0.50;;
8946;SDS011;4508;48.790;9.028;2023-01-15T02:21:00;0.55;;;0.55;;
8946;SDS011;4508;48.790;9.028;2023-01-15T02:29:33;0.57;;;0.57;;
8946;SDS011;4508;48.790;9.028;2023-01-15T02:32:07;0.50;;;0.50;;
8946;SDS011;4508;48.790;9.028;2023-01-15T02:34:39;0.60;;;0.60;;
8946;SDS011;4508;48.790;9.028;2023-01-15T02:37:12;0.57;;;0.40;;
8946;SDS011;4508;48.790;9.028;2023-01-15T02:39:44;0.65;;;0.50;;
8946;SDS011;4508;48.790;9.028;2023-01-15T02:42:14;0.55;;;0.50;;
8946;SDS011;4508;48.790;9.028;2023-01-15T02:44:44;0.45;;;0.45;;
8946;SDS011;4508;48.790;9.028;2023-01-15T02:47:14;0.40;;;0.40;;
8946;SDS011;4508;48.790;9.028;2023-01-15T02:49:44;0.60;;;0.60;;
8946;SDS011;4508;48.790;9.028;2023-01-15T02:52:14;0.47;;;0.47;;
8946;SDS011;4508;48.790;9.028;2023-01-15T02:54:47;0.43;;;0.32;;
8946;SDS011;4508;48.790;9.028;2023-01-15T02:57:19;0.50;;;0.50;;
8946;SDS011;4508;48.790;9.028;2023-01-15T02:59:51;0.50;;;0.50;;
8946;SDS011;4508;48.790;9.028;2023-01-15T03:02:21;0.50;;;0.45;;
8946;SDS011;4508;48.790;9.028;2023-01-15T03:04:53;0.57;;;0.57;;
8946;SDS011;4508;48.790;9.028;2023-01-15T03:07:25;0.47;;;0.47;;
8946;SDS011;4508;48.790;9.028;2023-01-15T03:09:56;0.52;;;0.52;;
8946;SDS011;4508;48.790;9.028;2023-01-15T03:12:25;0.52;;;0.52;;
8946;SDS011;4508;48.790;9.028;2023-01-15T03:14:55;0.75;;;0.40;;
8946;SDS011;4508;48.790;9.028;2023-01-15T03:17:31;0.70;;;0.50;;
8946;SDS011;4508;48.790;9.028;2023-01-15T03:20:01;0.60;;;0.60;;
8946;SDS011;4508;48.790;9.028;2023-01-15T03:22:35;0.40;;;0.40;;
8946;SDS011;4508;48.790;9.028;2023-01-15T03:25:05;0.50;;;0.50;;
8946;SDS011;4508;48.790;9.028;2023-01-15T03:27:36;0.50;;;0.50;;
8946;SDS011;4508;48.790;9.028;2023-01-15T03:30:04;0.50;;;0.50;;
8946;SDS011;4508;48.790;9.028;2023-01-15T03:32:33;0.50;;;0.50;;
8946;SDS011;4508;48.790;9.028;2023-01-15T03:35:00;0.60;;;0.60;;
8946;SDS011;4508;48.790;9.028;2023-01-15T03:37:28;0.50;;;0.50;;
8946;SDS011;4508;48.790;9.028;2023-01-15T03:39:56;0.40;;;0.40;;
8946;SDS011;4508;48.790;9.028;2023-01-15T03:42:27;0.70;;;0.70;;
8946;SDS011;4508;48.790;9.028;2023-01-15T03:45:04;0.60;;;0.40;;
8946;SDS011;4508;48.790;9.028;2023-01-15T03:47:38;0.60;;;0.50;;
8946;SDS011;4508;48.790;9.028;2023-01-15T03:50:13;0.40;;;0.40;;
8946;SDS011;4508;48.790;9.028;2023-01-15T03:52:48;0.60;;;0.60;;
8946;SDS011;4508;48.790;9.028;2023-01-15T03:55:23;0.40;;;0.38;;
8946;SDS011;4508;48.790;9.028;2023-01-15T03:57:54;0.60;;;0.60;;
8946;SDS011;4508;48.790;9.028;2023-01-15T04:00:26;0.50;;;0.50;;
8946;SDS011;4508;48.790;9.028;2023-01-15T04:02:55;0.40;;;0.40;;
8946;SDS011;4508;48.790;9.028;2023-01-15T04:05:24;0.50;;;0.50;;
8946;SDS011;4508;48.790;9.028;2023-01-15T04:07:53;0.50;;;0.50;;
8946;SDS011;4508;48.790;9.028;2023-01-15T04:10:21;0.50;;;0.50;;
8946;SDS011;4508;48.790;9.028;2023-01-15T04:12:48;0.90;;;0.50;;
8946;SDS011;4508;48.790;9.028;2023-01-15T04:15:15;0.60;;;0.60;;
8946;SDS011;4508;48.790;9.028;2023-01-15T04:17:44;0.43;;;0.40;;
8946;SDS011;4508;48.790;9.028;2023-01-15T04:20:11;0.40;;;0.40;;
8946;SDS011;4508;48.790;9.028;2023-01-15T04:22:38;0.55;;;0.55;;
8946;SDS011;4508;48.790;9.028;2023-01-15T04:25:05;0.60;;;0.60;;
8946;SDS011;4508;48.790;9.028;2023-01-15T04:27:33;0.70;;;0.70;;
8946;SDS011;4508;48.790;9.028;2023-01-15T04:29:59;0.60;;;0.60;;
8946;SDS011;4508;48.790;9.028;2023-01-15T04:32:26;0.50;;;0.50;;
8946;SDS011;4508;48.790;9.028;2023-01-15T04:34:54;0.50;;;0.50;;
8946;SDS011;4508;48.790;9.028;2023-01-15T04:37:21;0.50;;;0.40;;
8946;SDS011;4508;48.790;9.028;2023-01-15T04:39:47;0.40;;;0.40;;
8946;SDS011;4508;48.790;9.028;2023-01-15T04:42:14;0.60;;;0.60;;
8946;SDS011;4508;48.790;9.028;2023-01-15T04:44:58;0.40;;;0.40;;
8946;SDS011;4508;48.790;9.028;2023-01-15T04:47:25;0.40;;;0.40;;
8946;SDS011;4508;48.790;9.028;2023-01-15T04:49:56;0.60;;;0.60;;
8946;SDS011;4508;48.790;9.028;2023-01-15T04:52:23;0.40;;;0.40;;
8946;SDS011;4508;48.790;9.028;2023-01-15T04:54:49;0.40;;;0.40;;
8946;SDS011;4508;48.790;9.028;2023-01-15T04:57:16;0.50;;;0.50;;
8946;SDS011;4508;48.790;9.028;2023-01-15T04:59:43;0.40;;;0.40;;
8946;SDS011;4508;48.790;9.028;2023-01-15T05:02:09;0.40;;;0.40;;
8946;SDS011;4508;48.790;9.028;2023-01-15T05:04:36;0.50;;;0.50;;
8946;SDS011;4508;48.790;9.028;2023-01-15T05:07:04;0.40;;;0.40;;
8946;SDS011;4508;48.790;9.028;2023-01-15T05:09:31;0.40;;;0.40;;
8946;SDS011;4508;48.790;9.028;2023-01-15T05:11:58;0.60;;;0.60;;
8946;SDS011;4508;48.790;9.028;2023-01-15T05:14:25;0.70;;;0.40;;
8946;SDS011;4508;48.790;9.028;2023-01-15T05:16:52;0.98;;;0.47;;
8946;SDS011;4508;48.790;9.028;2023-01-15T05:19:18;0.88;;;0.60;;
8946;SDS011;4508;48.790;9.028;2023-01-15T05:21:45;0.50;;;0.40;;
8946;SDS011;4508;48.790;9.028;2023-01-15T05:24:14;0.55;;;0.30;;
8946;SDS011;4508;48.790;9.028;2023-01-15T05:26:42;0.52;;;0.52;;
8946;SDS011;4508;48.790;9.028;2023-01-15T05:29:09;0.47;;;0.47;;
8946;SDS011;4508;48.790;9.028;2023-01-15T05:31:36;0.45;;;0.40;;
8946;SDS011;4508;48.790;9.028;2023-01-15T05:34:03;0.60;;;0.60;;
8946;SDS011;4508;48.790;9.028;2023-01-15T05:36:30;0.40;;;0.40;;
8946;SDS011;4508;48.790;9.028;2023-01-15T05:38:57;0.45;;;0.45;;
8946;SDS011;4508;48.790;9.028;2023-01-15T05:41:27;0.40;;;0.40;;
8946;SDS011;4508;48.790;9.028;2023-01-15T05:44:11;0.60;;;0.60;;
8946;SDS011;4508;48.790;9.028;2023-01-15T05:46:39;0.50;;;0.50;;
8946;SDS011;4508;48.790;9.028;2023-01-15T05:49:08;0.50;;;0.50;;
8946;SDS011;4508;48.790;9.028;2023-01-15T05:51:37;0.40;;;0.40;;
8946;SDS011;4508;48.790;9.028;2023-01-15T05:54:06;0.43;;;0.43;;
8946;SDS011;4508;48.790;9.028;2023-01-15T05:56:37;0.70;;;0.70;;
8946;SDS011;4508;48.790;9.028;2023-01-15T05:59:04;0.60;;;0.60;;
8946;SDS011;4508;48.790;9.028;2023-01-15T06:01:32;0.60;;;0.60;;
8946;SDS011;4508;48.790;9.028;2023-01-15T06:03:59;0.60;;;0.60;;
8946;SDS011;4508;48.790;9.028;2023-01-15T06:06:26;0.60;;;0.60;;
8946;SDS011;4508;48.790;9.028;2023-01-15T06:08:53;0.60;;;0.60;;
8946;SDS011;4508;48.790;9.028;2023-01-15T06:11:20;0.50;;;0.50;;
8946;SDS011;4508;48.790;9.028;2023-01-15T06:13:48;0.57;;;0.57;;
8946;SDS011;4508;48.790;9.028;2023-01-15T06:16:15;0.70;;;0.70;;
8946;SDS011;4508;48.790;9.028;2023-01-15T06:18:43;0.50;;;0.50;;
8946;SDS011;4508;48.790;9.028;2023-01-15T06:21:10;0.52;;;0.52;;
8946;SDS011;4508;48.790;9.028;2023-01-15T06:23:38;0.50;;;0.50;;
8946;SDS011;4508;48.790;9.028;2023-01-15T06:26:06;0.50;;;0.50;;
8946;SDS011;4508;48.790;9.028;2023-01-15T06:28:35;0.50;;;0.50;;
8946;SDS011;4508;48.790;9.028;2023-01-15T06:31:04;0.50;;;0.50;;
8946;SDS011;4508;48.790;9.028;2023-01-15T06:33:31;0.50;;;0.50;;
8946;SDS011;4508;48.790;9.028;2023-01-15T06:36:01;0.70;;;0.70;;
8946;SDS011;4508;48.790;9.028;2023-01-15T06:38:28;0.70;;;0.70;;
8946;SDS011;4508;48.790;9.028;2023-01-15T06:40:56;0.63;;;0.63;;
8946;SDS011;4508;48.790;9.028;2023-01-15T06:43:24;0.60;;;0.60;;
8946;SDS011;4508;48.790;9.028;2023-01-15T06:46:18;0.60;;;0.60;;
8946;SDS011;4508;48.790;9.028;2023-01-15T06:49:03;0.90;;;0.60;;
8946;SDS011;4508;48.790;9.028;2023-01-15T06:51:29;0.60;;;0.60;;
8946;SDS011;4508;48.790;9.028;2023-01-15T06:53:56;0.65;;;0.65;;
8946;SDS011;4508;48.790;9.028;2023-01-15T06:56:23;0.80;;;0.80;;
8946;SDS011;4508;48.790;9.028;2023-01-15T06:58:49;0.77;;;0.77;;
8946;SDS011;4508;48.790;9.028;2023-01-15T07:01:16;0.70;;;0.70;;
8946;SDS011;4508;48.790;9.028;2023-01-15T07:03:44;0.67;;;0.67;;
8946;SDS011;4508;48.790;9.028;2023-01-15T07:06:11;0.70;;;0.70;;
8946;SDS011;4508;48.790;9.028;2023-01-15T07:08:38;0.70;;;0.70;;
8946;SDS011;4508;48.790;9.028;2023-01-15T07:11:07;0.70;;;0.70;;
8946;SDS011;4508;48.790;9.028;2023-01-15T07:13:35;0.70;;;0.70;;
8946;SDS011;4508;48.790;9.028;2023-01-15T07:16:02;0.70;;;0.70;;
8946;SDS011;4508;48.790;9.028;2023-01-15T07:18:30;0.70;;;0.50;;
8946;SDS011;4508;48.790;9.028;2023-01-15T07:21:00;0.60;;;0.60;;
8946;SDS011;4508;48.790;9.028;2023-01-15T07:23:27;0.80;;;0.80;;
8946;SDS011;4508;48.790;9.028;2023-01-15T07:25:54;0.60;;;0.60;;
8946;SDS011;4508;48.790;9.028;2023-01-15T07:28:21;0.80;;;0.80;;
8946;SDS011;4508;48.790;9.028;2023-01-15T07:30:49;0.60;;;0.60;;
8946;SDS011;4508;48.790;9.028;2023-01-15T07:33:16;0.65;;;0.65;;
8946;SDS011;4508;48.790;9.028;2023-01-15T07:35:42;0.60;;;0.60;;
8946;SDS011;4508;48.790;9.028;2023-01-15T07:38:10;0.50;;;0.50;;
8946;SDS011;4508;48.790;9.028;2023-01-15T07:40:37;0.60;;;0.60;;
8946;SDS011;4508;48.790;9.028;2023-01-15T07:43:04;0.57;;;0.57;;
8946;SDS011;4508;48.790;9.028;2023-01-15T07:45:48;0.60;;;0.60;;
8946;SDS011;4508;48.790;9.028;2023-01-15T07:48:32;0.75;;;0.75;;
8946;SDS011;4508;48.790;9.028;2023-01-15T07:51:16;0.90;;;0.90;;
8946;SDS011;4508;48.790;9.028;2023-01-15T07:53:44;0.95;;;0.95;;
8946;SDS011;4508;48.790;9.028;2023-01-15T07:56:11;1.00;;;1.00;;
8946;SDS011;4508;48.790;9.028;2023-01-15T07:58:38;1.00;;;1.00;;
8946;SDS011;4508;48.790;9.028;2023-01-15T08:01:04;0.90;;;0.90;;
8946;SDS011;4508;48.790;9.028;2023-01-15T08:03:31;1.00;;;1.00;;
8946;SDS011;4508;48.790;9.028;2023-01-15T08:05:58;1.03;;;1.03;;
8946;SDS011;4508;48.790;9.028;2023-01-15T08:08:24;1.15;;;1.10;;
8946;SDS011;4508;48.790;9.028;2023-01-15T08:10:52;1.10;;;1.10;;
8946;SDS011;4508;48.790;9.028;2023-01-15T08:13:37;0.90;;;0.90;;
8946;SDS011;4508;48.790;9.028;2023-01-15T08:16:26;0.90;;;0.90;;
8946;SDS011;4508;48.790;9.028;2023-01-15T08:18:53;0.90;;;0.90;;
8946;SDS011;4508;48.790;9.028;2023-01-15T08:21:19;0.90;;;0.90;;
8946;SDS011;4508;48.790;9.028;2023-01-15T08:23:46;1.05;;;1.05;;
8946;SDS011;4508;48.790;9.028;2023-01-15T08:26:15;1.10;;;1.10;;
8946;SDS011;4508;48.790;9.028;2023-01-15T08:28:42;0.90;;;0.90;;
8946;SDS011;4508;48.790;9.028;2023-01-15T08:31:09;0.80;;;0.80;;
8946;SDS011;4508;48.790;9.028;2023-01-15T08:33:35;0.80;;;0.80;;
8946;SDS011;4508;48.790;9.028;2023-01-15T08:36:02;0.90;;;0.90;;
8946;SDS011;4508;48.790;9.028;2023-01-15T08:38:29;1.20;;;1.10;;
8946;SDS011;4508;48.790;9.028;2023-01-15T08:40:56;0.85;;;0.85;;
8946;SDS011;4508;48.790;9.028;2023-01-15T08:43:29;0.80;;;0.80;;
8946;SDS011;4508;48.790;9.028;2023-01-15T08:45:57;0.90;;;0.90;;
8946;SDS011;4508;48.790;9.028;2023-01-15T08:48:26;0.82;;;0.82;;
8946;SDS011;4508;48.790;9.028;2023-01-15T08:50:53;1.00;;;1.00;;
8946;SDS011;4508;48.790;9.028;2023-01-15T08:53:20;0.90;;;0.90;;
8946;SDS011;4508;48.790;9.028;2023-01-15T08:55:48;1.10;;;1.10;;
8946;SDS011;4508;48.790;9.028;2023-01-15T08:58:16;1.20;;;1.20;;
8946;SDS011;4508;48.790;9.028;2023-01-15T09:00:44;1.42;;;1.33;;
8946;SDS011;4508;48.790;9.028;2023-01-15T09:03:12;1.50;;;1.40;;
8946;SDS011;4508;48.790;9.028;2023-01-15T09:05:39;2.70;;;2.50;;
8946;SDS011;4508;48.790;9.028;2023-01-15T09:08:06;2.40;;;2.20;;
8946;SDS011;4508;48.790;9.028;2023-01-15T09:10:33;1.30;;;1.30;;
8946;SDS011;4508;48.790;9.028;2023-01-15T09:13:00;1.50;;;1.40;;
8946;SDS011;4508;48.790;9.028;2023-01-15T09:15:27;1.83;;;1.35;;
8946;SDS011;4508;48.790;9.028;2023-01-15T09:17:56;2.15;;;2.05;;
8946;SDS011;4508;48.790;9.028;2023-01-15T09:20:23;1.40;;;1.30;;
8946;SDS011;4508;48.790;9.028;2023-01-15T09:22:50;1.30;;;1.20;;
8946;SDS011;4508;48.790;9.028;2023-01-15T09:25:17;1.08;;;1.08;;
8946;SDS011;4508;48.790;9.028;2023-01-15T09:27:47;1.30;;;1.20;;
8946;SDS011;4508;48.790;9.028;2023-01-15T09:30:15;1.00;;;1.00;;
8946;SDS011;4508;48.790;9.028;2023-01-15T09:32:43;1.20;;;1.10;;
8946;SDS011;4508;48.790;9.028;2023-01-15T09:35:11;0.93;;;0.93;;
8946;SDS011;4508;48.790;9.028;2023-01-15T09:37:38;1.00;;;1.00;;
8946;SDS011;4508;48.790;9.028;2023-01-15T09:40:06;0.85;;;0.85;;
8946;SDS011;4508;48.790;9.028;2023-01-15T09:42:40;1.50;;;0.90;;
8946;SDS011;4508;48.790;9.028;2023-01-15T09:45:19;0.93;;;0.93;;
8946;SDS011;4508;48.790;9.028;2023-01-15T09:47:56;1.00;;;1.00;;
8946;SDS011;4508;48.790;9.028;2023-01-15T09:50:37;1.55;;;1.45;;
8946;SDS011;4508;48.790;9.028;2023-01-15T09:53:16;1.00;;;1.00;;
8946;SDS011;4508;48.790;9.028;2023-01-15T09:55:56;1.10;;;1.10;;
8946;SDS011;4508;48.790;9.028;2023-01-15T09:58:26;1.13;;;1.13;;
8946;SDS011;4508;48.790;9.028;2023-01-15T10:00:59;1.00;;;1.00;;
8946;SDS011;4508;48.790;9.028;2023-01-15T10:03:30;1.27;;;1.27;;
8946;SDS011;4508;48.790;9.028;2023-01-15T10:06:06;1.70;;;1.60;;
8946;SDS011;4508;48.790;9.028;2023-01-15T10:08:39;1.20;;;1.15;;
8946;SDS011;4508;48.790;9.028;2023-01-15T10:11:18;1.20;;;1.20;;
8946;SDS011;4508;48.790;9.028;2023-01-15T10:14:12;0.98;;;0.98;;
8946;SDS011;4508;48.790;9.028;2023-01-15T10:16:46;0.80;;;0.80;;
8946;SDS011;4508;48.790;9.028;2023-01-15T10:19:12;1.05;;;1.05;;
8946;SDS011;4508;48.790;9.028;2023-01-15T10:21:42;0.90;;;0.90;;
8946;SDS011;4508;48.790;9.028;2023-01-15T10:24:16;0.80;;;0.80;;
8946;SDS011;4508;48.790;9.028;2023-01-15T10:26:45;1.30;;;1.20;;
8946;SDS011;4508;48.790;9.028;2023-01-15T10:29:20;1.00;;;1.00;;
8946;SDS011;4508;48.790;9.028;2023-01-15T10:31:52;1.00;;;1.00;;
8946;SDS011;4508;48.790;9.028;2023-01-15T10:37:30;1.05;;;0.90;;
8946;SDS011;4508;48.790;9.028;2023-01-15T10:40:11;1.00;;;1.00;;
8946;SDS011;4508;48.790;9.028;2023-01-15T10:42:52;1.30;;;1.20;;
8946;SDS011;4508;48.790;9.028;2023-01-15T10:45:24;1.40;;;1.30;;
8946;SDS011;4508;48.790;9.028;2023-01-15T10:47:54;1.40;;;1.30;;
8946;SDS011;4508;48.790;9.028;2023-01-15T10:50:25;1.42;;;1.33;;
8946;SDS011;4508;48.790;9.028;2023-01-15T10:52:59;1.20;;;1.10;;
8946;SDS011;4508;48.790;9.028;2023-01-15T10:55:31;1.00;;;1.00;;
8946;SDS011;4508;48.790;9.028;2023-01-15T10:58:02;1.27;;;1.20;;
8946;SDS011;4508;48.790;9.028;2023-01-15T11:00:34;0.82;;;0.82;;
8946;SDS011;4508;48.790;9.028;2023-01-15T11:03:02;1.00;;;0.80;;
8946;SDS011;4508;48.790;9.028;2023-01-15T11:05:32;0.85;;;0.85;;
8946;SDS011;4508;48.790;9.028;2023-01-15T11:08:02;0.80;;;0.80;;
8946;SDS011;4508;48.790;9.028;2023-01-15T11:10:32;0.90;;;0.90;;
8946;SDS011;4508;48.790;9.028;2023-01-15T11:12:59;1.05;;;1.05;;
8946;SDS011;4508;48.790;9.028;2023-01-15T11:15:57;1.30;;;1.30;;
8946;SDS011;4508;48.790;9.028;2023-01-15T11:18:41;1.33;;;1.30;;
8946;SDS011;4508;48.790;9.028;2023-01-15T11:21:27;1.25;;;1.20;;
8946;SDS011;4508;48.790;9.028;2023-01-15T11:23:57;1.50;;;1.40;;
8946;SDS011;4508;48.790;9.028;2023-01-15T11:26:25;1.15;;;1.10;;
8946;SDS011;4508;48.790;9.028;2023-01-15T11:28:54;1.50;;;1.40;;
8946;SDS011;4508;48.790;9.028;2023-01-15T11:31:22;1.33;;;1.23;;
8946;SDS011;4508;48.790;9.028;2023-01-15T11:34:01;1.00;;;1.00;;
8946;SDS011;4508;48.790;9.028;2023-01-15T11:36:29;1.08;;;1.08;;
8946;SDS011;4508;48.790;9.028;2023-01-15T11:38:58;1.55;;;1.45;;
8946;SDS011;4508;48.790;9.028;2023-01-15T11:41:27;1.05;;;1.00;;
8946;SDS011;4508;48.790;9.028;2023-01-15T11:44:16;1.20;;;1.20;;
8946;SDS011;4508;48.790;9.028;2023-01-15T11:47:01;1.33;;;1.23;;
8946;SDS011;4508;48.790;9.028;2023-01-15T11:49:49;1.95;;;1.85;;
8946;SDS011;4508;48.790;9.028;2023-01-15T11:52:35;1.40;;;1.30;;
8946;SDS011;4508;48.790;9.028;2023-01-15T11:55:09;2.42;;;1.20;;
8946;SDS011;4508;48.790;9.028;2023-01-15T11:57:39;1.20;;;1.20;;
8946;SDS011;4508;48.790;9.028;2023-01-15T12:00:07;1.65;;;1.55;;
8946;SDS011;4508;48.790;9.028;2023-01-15T12:02:45;1.20;;;1.20;;
8946;SDS011;4508;48.790;9.028;2023-01-15T12:05:16;1.20;;;1.10;;
8946;SDS011;4508;48.790;9.028;2023-01-15T12:07:45;2.03;;;1.92;;
8946;SDS011;4508;48.790;9.028;2023-01-15T12:10:20;1.73;;;1.63;;
8946;SDS011;4508;48.790;9.028;2023-01-15T12:13:19;1.20;;;1.20;;
8946;SDS011;4508;48.790;9.028;2023-01-15T12:15:52;1.38;;;1.30;;
8946;SDS011;4508;48.790;9.028;2023-01-15T12:21:36;1.40;;;1.30;;
8946;SDS011;4508;48.790;9.028;2023-01-15T12:24:24;2.40;;;2.00;;
8946;SDS011;4508;48.790;9.028;2023-01-15T12:27:04;1.45;;;1.35;;
8946;SDS011;4508;48.790;9.028;2023-01-15T12:29:45;1.30;;;1.20;;
8946;SDS011;4508;48.790;9.028;2023-01-15T12:32:17;1.50;;;1.40;;
8946;SDS011;4508;48.790;9.028;2023-01-15T12:34:51;1.20;;;1.10;;
8946;SDS011;4508;48.790;9.028;2023-01-15T12:37:22;2.30;;;2.10;;
8946;SDS011;4508;48.790;9.028;2023-01-15T12:39:53;3.20;;;2.80;;
8946;SDS011;4508;48.790;9.028;2023-01-15T12:42:24;2.03;;;1.50;;
8946;SDS011;4508;48.790;9.028;2023-01-15T12:45:13;1.40;;;1.30;;
8946;SDS011;4508;48.790;9.028;2023-01-15T12:47:43;1.92;;;1.58;;
8946;SDS011;4508;48.790;9.028;2023-01-15T12:50:19;1.80;;;1.70;;
8946;SDS011;4508;48.790;9.028;2023-01-15T12:52:53;1.55;;;1.35;;
8946;SDS011;4508;48.790;9.028;2023-01-15T12:55:27;2.38;;;1.90;;
8946;SDS011;4508;48.790;9.028;2023-01-15T12:57:58;2.10;;;1.70;;
8946;SDS011;4508;48.790;9.028;2023-01-15T13:00:28;1.90;;;1.58;;
8946;SDS011;4508;48.790;9.028;2023-01-15T13:03:04;1.67;;;1.33;;
8946;SDS011;4508;48.790;9.028;2023-01-15T13:05:40;2.05;;;1.73;;
8946;SDS011;4508;48.790;9.028;2023-01-15T13:08:12;1.92;;;1.48;;
8946;SDS011;4508;48.790;9.028;2023-01-15T13:10:44;2.35;;;1.50;;
8946;SDS011;4508;48.790;9.028;2023-01-15T13:13:16;1.58;;;1.13;;
8946;SDS011;4508;48.790;9.028;2023-01-15T13:15:51;6.13;;;1.70;;
8946;SDS011;4508;48.790;9.028;2023-01-15T13:18:25;2.70;;;1.50;;
8946;SDS011;4508;48.790;9.028;2023-01-15T13:21:01;2.28;;;1.60;;
8946;SDS011;4508;48.790;9.028;2023-01-15T13:23:40;1.70;;;1.60;;
8946;SDS011;4508;48.790;9.028;2023-01-15T13:26:22;1.88;;;1.73;;
8946;SDS011;4508;48.790;9.028;2023-01-15T13:29:06;3.50;;;1.63;;
8946;SDS011;4508;48.790;9.028;2023-01-15T13:31:49;1.50;;;1.40;;
8946;SDS011;4508;48.790;9.028;2023-01-15T13:34:23;2.75;;;1.60;;
8946;SDS011;4508;48.790;9.028;2023-01-15T13:36:55;1.90;;;1.30;;
8946;SDS011;4508;48.790;9.028;2023-01-15T13:39:36;2.40;;;1.60;;
8946;SDS011;4508;48.790;9.028;2023-01-15T13:42:10;1.90;;;1.30;;
8946;SDS011;4508;48.790;9.028;2023-01-15T13:44:58;2.00;;;1.30;;
8946;SDS011;4508;48.790;9.028;2023-01-15T13:47:29;2.40;;;1.40;;
8946;SDS011;4508;48.790;9.028;2023-01-15T13:49:59;2.05;;;1.40;;
8946;SDS011;4508;48.790;9.028;2023-01-15T13:52:30;1.50;;;1.40;;
8946;SDS011;4508;48.790;9.028;2023-01-15T13:54:59;1.73;;;1.20;;
8946;SDS011;4508;48.790;9.028;2023-01-15T13:57:34;1.33;;;1.20;;
8946;SDS011;4508;48.790;9.028;2023-01-15T14:00:24;2.70;;;1.27;;
8946;SDS011;4508;48.790;9.028;2023-01-15T14:02:53;1.65;;;1.17;;
8946;SDS011;4508;48.790;9.028;2023-01-15T14:05:29;2.38;;;1.38;;
8946;SDS011;4508;48.790;9.028;2023-01-15T14:07:57;2.05;;;1.45;;
8946;SDS011;4508;48.790;9.028;2023-01-15T14:10:31;2.20;;;1.70;;
8946;SDS011;4508;48.790;9.028;2023-01-15T14:13:08;2.13;;;1.30;;
8946;SDS011;4508;48.790;9.028;2023-01-15T14:15:49;1.77;;;1.40;;
8946;SDS011;4508;48.790;9.028;2023-01-15T14:18:26;1.70;;;1.35;;
8946;SDS011;4508;48.790;9.028;2023-01-15T14:24:33;2.20;;;1.20;;
8946;SDS011;4508;48.790;9.028;2023-01-15T14:27:17;1.95;;;1.10;;
8946;SDS011;4508;48.790;9.028;2023-01-15T14:30:01;2.60;;;1.40;;
8946;SDS011;4508;48.790;9.028;2023-01-15T14:32:43;2.75;;;1.63;;
8946;SDS011;4508;48.790;9.028;2023-01-15T14:35:21;2.35;;;1.42;;
8946;SDS011;4508;48.790;9.028;2023-01-15T14:37:50;3.10;;;1.50;;
8946;SDS011;4508;48.790;9.028;2023-01-15T14:40:21;2.20;;;1.63;;
8946;SDS011;4508;48.790;9.028;2023-01-15T14:42:50;3.30;;;1.70;;
8946;SDS011;4508;48.790;9.028;2023-01-15T14:45:27;3.03;;;2.28;;
8946;SDS011;4508;48.790;9.028;2023-01-15T14:47:57;2.78;;;1.63;;
8946;SDS011;4508;48.790;9.028;2023-01-15T14:50:30;2.22;;;1.63;;
8946;SDS011;4508;48.790;9.028;2023-01-15T14:53:12;2.58;;;1.77;;
8946;SDS011;4508;48.790;9.028;2023-01-15T14:55:46;2.30;;;1.35;;
8946;SDS011;4508;48.790;9.028;2023-01-15T14:58:16;1.88;;;1.17;;
8946;SDS011;4508;48.790;9.028;2023-01-15T15:00:56;2.63;;;1.73;;
8946;SDS011;4508;48.790;9.028;2023-01-15T15:03:32;2.55;;;1.30;;
8946;SDS011;4508;48.790;9.028;2023-01-15T15:06:02;1.88;;;1.25;;
8946;SDS011;4508;48.790;9.028;2023-01-15T15:08:30;2.38;;;1.33;;
8946;SDS011;4508;48.790;9.028;2023-01-15T15:10:59;2.03;;;1.27;;
8946;SDS011;4508;48.790;9.028;2023-01-15T15:13:50;2.27;;;1.50;;
8946;SDS011;4508;48.790;9.028;2023-01-15T15:16:23;2.27;;;1.60;;
8946;SDS011;4508;48.790;9.028;2023-01-15T15:18:54;2.38;;;1.65;;
8946;SDS011;4508;48.790;9.028;2023-01-15T15:21:26;2.10;;;1.67;;
8946;SDS011;4508;48.790;9.028;2023-01-15T15:23:55;1.83;;;1.42;;
8946;SDS011;4508;48.790;9.028;2023-01-15T15:26:28;1.65;;;1.25;;
8946;SDS011;4508;48.790;9.028;2023-01-15T15:28:56;2.30;;;1.42;;
8946;SDS011;4508;48.790;9.028;2023-01-15T15:31:24;2.08;;;1.52;;
8946;SDS011;4508;48.790;9.028;2023-01-15T15:33:54;2.45;;;1.55;;
8946;SDS011;4508;48.790;9.028;2023-01-15T15:36:21;1.50;;;1.40;;
8946;SDS011;4508;48.790;9.028;2023-01-15T15:38:51;1.60;;;1.50;;
8946;SDS011;4508;48.790;9.028;2023-01-15T15:41:19;1.55;;;1.20;;
8946;SDS011;4508;48.790;9.028;2023-01-15T15:44:11;2.58;;;1.42;;
8946;SDS011;4508;48.790;9.028;2023-01-15T15:47:01;2.00;;;1.30;;
8946;SDS011;4508;48.790;9.028;2023-01-15T15:50:01;2.72;;;1.40;;
8946;SDS011;4508;48.790;9.028;2023-01-15T15:52:28;2.28;;;1.58;;
8946;SDS011;4508;48.790;9.028;2023-01-15T15:54:56;1.70;;;1.30;;
8946;SDS011;4508;48.790;9.028;2023-01-15T15:57:24;1.65;;;1.30;;